»·PEaware :: N6507W L52-L88

N6507W :: L52-L88

FLIGHT INFORMATION

Flight Status: Arrived
Operator: Privately registered:
United States
More flights under this callsign
Pilot: Jukka N. (18040)
Aircraft: PIPER PA-28R-201 ARROW
(P28R)
More flights by this aircraft type
Origin: L52 Oceano Co
United States
Destination: L88 New Cuyama
United States
More flights between these airports :: More routes between these airports
Route:
File this flight plan on PilotEdge
Remarks:
Altitude:
(Current/Filed)
7,500ft
Speed:
(Current/Filed)
140kts
Departed: 07-Mar-19 09:56 AM
Arrived: 07-Mar-19 10:32 AM
Distance/Time
Traveled:
47nm/0:36
Distance/Time
To Go:
Arrived

Flight Plot

Page will automatically refresh every two minutes.


Map Options




Map Legend


Flown Route
Filed Route
Departure Airport
Arrival Airport
Navaid (VOR, NDB)
Fix

Horizontal Profiles

Position Reports

Time Latitude Longitude Heading Altitude Ground
Speed
07-Mar-19 09:42 35.103552 -120.624283 214 17ft 0kts
07-Mar-19 09:43 35.103553 -120.624283 214 17ft 0kts
07-Mar-19 09:44 35.103553 -120.624283 214 17ft 0kts
07-Mar-19 09:45 35.103553 -120.624283 214 17ft 0kts
07-Mar-19 09:46 35.103553 -120.624283 214 17ft 0kts
07-Mar-19 09:47 35.103553 -120.624283 214 17ft 0kts
07-Mar-19 09:48 35.103553 -120.624283 214 17ft 0kts
07-Mar-19 09:49 35.103578 -120.625121 195 17ft 6kts
07-Mar-19 09:50 35.103435 -120.625214 212 17ft 0kts
07-Mar-19 09:51 35.103435 -120.625214 212 17ft 0kts
07-Mar-19 09:52 35.103435 -120.625214 212 17ft 0kts
07-Mar-19 09:53 35.102694 -120.625368 119 17ft 12kts
07-Mar-19 09:54 35.100064 -120.620447 122 17ft 20kts
07-Mar-19 09:55 35.099544 -120.619376 77 17ft 0kts
07-Mar-19 09:56 35.104317 -120.628269 298 239ft 78kts
07-Mar-19 09:57 35.111179 -120.651420 229 1328ft 85kts
07-Mar-19 09:58 35.093493 -120.635397 121 2320ft 104kts
07-Mar-19 09:59 35.083845 -120.617016 121 2944ft 107kts
07-Mar-19 10:00 35.068264 -120.586184 121 4003ft 105kts
07-Mar-19 10:00 35.056303 -120.561009 122 4881ft 100kts
07-Mar-19 10:02 35.042251 -120.530380 132 6069ft 71kts
07-Mar-19 10:03 35.025311 -120.508803 144 6544ft 103kts
07-Mar-19 10:03 35.009700 -120.484101 121 6929ft 120kts
07-Mar-19 10:04 34.995098 -120.446307 121 7385ft 124kts
07-Mar-19 10:06 34.990981 -120.396290 97 7910ft 129kts
07-Mar-19 10:06 34.998052 -120.361064 63 8286ft 133kts
07-Mar-19 10:07 35.014368 -120.323948 63 8695ft 133kts
07-Mar-19 10:08 35.032687 -120.282774 63 8567ft 143kts
07-Mar-19 10:09 35.051662 -120.237653 73 7614ft 156kts
07-Mar-19 10:10 35.048260 -120.188673 113 7405ft 131kts
07-Mar-19 10:11 35.026205 -120.153911 137 7504ft 136kts
07-Mar-19 10:12 35.001137 -120.118465 137 7504ft 138kts
07-Mar-19 10:13 34.981486 -120.078179 101 7503ft 148kts
07-Mar-19 10:14 34.981915 -120.027186 93 7504ft 150kts
07-Mar-19 10:15 34.982794 -119.976218 93 7504ft 150kts
07-Mar-19 10:16 34.977959 -119.926582 106 7504ft 147kts
07-Mar-19 10:17 34.970111 -119.877407 106 7504ft 148kts
07-Mar-19 10:18 34.962775 -119.830658 106 6723ft 127kts
07-Mar-19 10:19 34.956619 -119.790113 106 5661ft 118kts
07-Mar-19 10:20 34.975754 -119.772511 308 4591ft 104kts
07-Mar-19 10:21 34.962913 -119.786512 141 3523ft 107kts
07-Mar-19 10:22 34.951423 -119.760570 157 3291ft 69kts
07-Mar-19 10:23 34.929490 -119.742174 145 3304ft 116kts
07-Mar-19 10:24 34.938198 -119.708481 68 3306ft 114kts
07-Mar-19 10:25 34.956018 -119.683766 342 3307ft 101kts
07-Mar-19 10:26 34.960193 -119.710355 249 3309ft 88kts
07-Mar-19 10:27 34.940848 -119.719775 135 3307ft 101kts
07-Mar-19 10:28 34.930197 -119.688089 118 3310ft 96kts
07-Mar-19 10:29 34.930318 -119.663169 328 2912ft 77kts
07-Mar-19 10:30 34.939325 -119.684284 297 2206ft 50kts
07-Mar-19 10:31 34.942681 -119.691200 353 2206ft 12kts
07-Mar-19 10:32 34.942521 -119.689867 148 2206ft 0kts
07-Mar-19 10:33 34.942521 -119.689867 148 2206ft 0kts
07-Mar-19 10:34 34.942521 -119.689867 148 2206ft 0kts
07-Mar-19 10:35 34.942521 -119.689867 148 2206ft 0kts
07-Mar-19 10:36 34.942521 -119.689867 148 2206ft 0kts
07-Mar-19 10:37 34.942521 -119.689867 148 2206ft 0kts
07-Mar-19 10:38 34.942521 -119.689867 148 2206ft 0kts
07-Mar-19 10:39 34.942521 -119.689867 148 2206ft 0kts
07-Mar-19 10:40 34.942521 -119.689867 148 2206ft 0kts
07-Mar-19 10:41 34.942521 -119.689867 148 2206ft 0kts
07-Mar-19 10:42 34.942521 -119.689867 148 2206ft 0kts
07-Mar-19 10:43 34.942521 -119.689867 148 2206ft 0kts
07-Mar-19 10:44 34.942521 -119.689867 148 2206ft 0kts
07-Mar-19 10:45 34.942521 -119.689867 148 2206ft 0kts

Navigation Log

Ident Type
Flight plan parsing failed, navigation log unavailable